Frontier Kotobuki — 3EXC5 — position and weather

sailwx.info

Track history (hours):
 
Tides and Currents Weather Stations Pressure Air Temp Water Temp Dewpoint Dewpoint Depression Visibility Wind Speed Wind Dir Waves Ship Positions

Frontier Kotobuki

Last reported at 2017-Aug-14 05:49 UTC. Time now 2017-Aug-22 09:14 UTC.
Position S 34°03' E 017°51'.
Warning: this ship's position is 8 days out of date.

Length 290 m; draft 17.8 m.

Type: Cargo ship. MMSI: 355036000.

Date/timePositionNaut miles runAvg speedWind from/ knotsBaromVisibWave heightAir tempDewpointWater temp
2017-Aug-14 05:49S 34°03' E 017°51'1512.4
2017-Aug-14 04:34S 34°16' E 018°02'112.6
2017-Aug-14 04:30S 34°16' E 018°03'1912.7
2017-Aug-14 03:02S 34°31' E 018°17'112.5
2017-Aug-14 02:58S 34°31' E 018°18'  
2017-Aug-11 12:36S 32°46' E 030°38'111.3
2017-Aug-11 12:30S 32°46' E 030°39'611.2
2017-Aug-11 12:00S 32°43' E 030°45'611.1
2017-Aug-11 11:31S 32°40' E 030°50'611.2
2017-Aug-11 11:01S 32°37' E 030°56'611.3
2017-Aug-11 10:30S 32°34' E 031°02'611.7
2017-Aug-11 10:01S 32°31' E 031°08'611.7
2017-Aug-11 09:30S 32°28' E 031°14'611.6
2017-Aug-11 09:00S 32°25' E 031°20'611.6
2017-Aug-11 08:31S 32°22' E 031°25'611.3
2017-Aug-11 08:01S 32°19' E 031°31'611.0
2017-Aug-11 07:31S 32°16' E 031°37'510.6
2017-Aug-11 07:00S 32°14' E 031°42'510.3
2017-Aug-11 06:30S 32°11' E 031°48'611.3
2017-Aug-11 05:58S 32°08' E 031°54'511.7
2017-Aug-11 05:30S 32°06' E 031°60'611.7
2017-Aug-11 05:01S 32°04' E 032°06'611.9
2017-Aug-11 04:30S 32°02' E 032°13'611.8
2017-Aug-11 04:00S 31°60' E 032°19'611.6
2017-Aug-11 03:30S 31°58' E 032°25'1411.6
2017-Aug-11 02:20S 31°53' E 032°41'411.8
2017-Aug-11 02:00S 31°52' E 032°45'612.0
2017-Aug-11 01:30S 31°50' E 032°52'712.1
2017-Aug-11 00:57S 31°47' E 032°59'712.0
2017-Aug-11 00:24S 31°45' E 033°06'512.3
2017-Aug-11 00:01S 31°43' E 033°11'612.3
2017-Aug-10 23:31S 31°41' E 033°18'612.0
2017-Aug-10 23:01S 31°39' E 033°25'611.6
2017-Aug-10 22:30S 31°37' E 033°31'611.3
2017-Aug-10 22:00S 31°35' E 033°37'510.7
2017-Aug-10 21:30S 31°33' E 033°43'810.7
2017-Aug-10 20:47S 31°30' E 033°52'310.8
2017-Aug-10 20:30S 31°29' E 033°55'  
Track history (hours):
 
Tides and Currents Weather Stations Pressure Air Temp Water Temp Dewpoint Dewpoint Depression Visibility Wind Speed Wind Dir Waves Ship Positions

Frontier Kotobuki

Last reported at 2017-Aug-14 05:49 UTC. Time now 2017-Aug-22 09:14 UTC.
Position S 34°03' E 017°51'.
Warning: this ship's position is 8 days out of date.

Length 290 m; draft 17.8 m.

Type: Cargo ship. MMSI: 355036000.

Date/timePositionNaut miles runAvg speedWind from/ knotsBaromVisibWave heightAir tempDewpointWater temp
2017-Aug-14 05:49S 34°03' E 017°51'1512.4
2017-Aug-14 04:34S 34°16' E 018°02'112.6
2017-Aug-14 04:30S 34°16' E 018°03'1912.7
2017-Aug-14 03:02S 34°31' E 018°17'112.5
2017-Aug-14 02:58S 34°31' E 018°18'  
2017-Aug-11 12:36S 32°46' E 030°38'111.3
2017-Aug-11 12:30S 32°46' E 030°39'611.2
2017-Aug-11 12:00S 32°43' E 030°45'611.1
2017-Aug-11 11:31S 32°40' E 030°50'611.2
2017-Aug-11 11:01S 32°37' E 030°56'611.3
2017-Aug-11 10:30S 32°34' E 031°02'611.7
2017-Aug-11 10:01S 32°31' E 031°08'611.7
2017-Aug-11 09:30S 32°28' E 031°14'611.6
2017-Aug-11 09:00S 32°25' E 031°20'611.6
2017-Aug-11 08:31S 32°22' E 031°25'611.3
2017-Aug-11 08:01S 32°19' E 031°31'611.0
2017-Aug-11 07:31S 32°16' E 031°37'510.6
2017-Aug-11 07:00S 32°14' E 031°42'510.3
2017-Aug-11 06:30S 32°11' E 031°48'611.3
2017-Aug-11 05:58S 32°08' E 031°54'511.7
2017-Aug-11 05:30S 32°06' E 031°60'611.7
2017-Aug-11 05:01S 32°04' E 032°06'611.9
2017-Aug-11 04:30S 32°02' E 032°13'611.8
2017-Aug-11 04:00S 31°60' E 032°19'611.6
2017-Aug-11 03:30S 31°58' E 032°25'1411.6
2017-Aug-11 02:20S 31°53' E 032°41'411.8
2017-Aug-11 02:00S 31°52' E 032°45'612.0
2017-Aug-11 01:30S 31°50' E 032°52'712.1
2017-Aug-11 00:57S 31°47' E 032°59'712.0
2017-Aug-11 00:24S 31°45' E 033°06'512.3
2017-Aug-11 00:01S 31°43' E 033°11'612.3
2017-Aug-10 23:31S 31°41' E 033°18'612.0
2017-Aug-10 23:01S 31°39' E 033°25'611.6
2017-Aug-10 22:30S 31°37' E 033°31'611.3
2017-Aug-10 22:00S 31°35' E 033°37'510.7
2017-Aug-10 21:30S 31°33' E 033°43'810.7
2017-Aug-10 20:47S 31°30' E 033°52'310.8
2017-Aug-10 20:30S 31°29' E 033°55'  

Dump ship's entire track history